createdAt,value
2022-10-05T00:00:18.340Z,6.58
2022-10-05T00:02:46.612Z,6.52
2022-10-05T00:05:33.265Z,6.44
2022-10-05T00:08:11.887Z,6.50
2022-10-05T00:10:41.359Z,6.50
2022-10-05T00:13:19.937Z,6.46
2022-10-05T00:15:47.212Z,6.42
2022-10-05T00:18:19.643Z,6.43
2022-10-05T00:20:47.781Z,6.45
2022-10-05T00:23:34.802Z,6.43
2022-10-05T00:26:09.132Z,6.42
2022-10-05T00:28:36.298Z,6.37
2022-10-05T00:31:03.171Z,6.27
2022-10-05T00:33:30.118Z,6.28
2022-10-05T00:35:56.892Z,6.16
2022-10-05T00:38:23.738Z,6.26
2022-10-05T00:41:07.486Z,6.25
2022-10-05T00:43:52.416Z,6.17
2022-10-05T00:46:38.633Z,6.18
2022-10-05T00:49:40.241Z,6.11
2022-10-05T00:52:22.923Z,6.12
2022-10-05T00:55:05.976Z,6.11
2022-10-05T00:58:13.247Z,6.06
2022-10-05T01:01:02.807Z,5.99
2022-10-05T01:03:38.432Z,5.96
2022-10-05T01:06:23.884Z,5.72
2022-10-05T01:09:02.675Z,5.76
2022-10-05T01:12:04.167Z,5.84
2022-10-05T01:14:58.715Z,5.85
2022-10-05T01:17:32.078Z,5.80
2022-10-05T01:20:10.745Z,5.85
2022-10-05T01:22:54.755Z,5.78
2022-10-05T01:26:08.373Z,5.76
2022-10-05T01:28:41.505Z,5.71
2022-10-05T01:31:26.754Z,5.74
2022-10-05T01:34:22.307Z,5.74
2022-10-05T01:37:15.594Z,5.74
2022-10-05T01:40:03.533Z,5.70
2022-10-05T01:42:36.621Z,5.72
2022-10-05T01:45:09.596Z,5.69
2022-10-05T01:47:51.398Z,5.64
2022-10-05T01:50:44.689Z,5.59
2022-10-05T01:53:41.468Z,5.59
2022-10-05T01:56:26.441Z,5.60
2022-10-05T01:59:18.919Z,5.63
2022-10-05T02:01:56.419Z,5.63
2022-10-05T02:05:00.338Z,5.65
2022-10-05T02:07:27.713Z,5.65
2022-10-05T02:10:01.107Z,5.56
2022-10-05T02:12:32.972Z,5.56
2022-10-05T02:15:07.323Z,5.66
2022-10-05T02:17:42.412Z,5.65
2022-10-05T02:20:12.006Z,5.60
2022-10-05T02:23:02.316Z,5.63
2022-10-05T02:25:41.375Z,5.66
2022-10-05T02:28:12.977Z,5.69
2022-10-05T02:30:44.868Z,5.70
2022-10-05T02:33:21.632Z,5.62
2022-10-05T02:35:48.464Z,5.60
2022-10-05T02:38:54.385Z,5.56
2022-10-05T02:41:21.144Z,5.45
2022-10-05T02:44:02.262Z,5.41
2022-10-05T02:46:46.603Z,5.42
2022-10-05T02:49:55.084Z,5.44
2022-10-05T02:52:23.101Z,5.49
2022-10-05T02:55:15.871Z,5.51
2022-10-05T02:57:48.020Z,5.52
2022-10-05T03:00:17.152Z,5.52
2022-10-05T03:02:58.699Z,5.50
2022-10-05T03:05:30.857Z,5.49
2022-10-05T03:08:02.322Z,5.40
2022-10-05T03:10:34.328Z,5.37
2022-10-05T03:13:07.156Z,5.37
2022-10-05T03:15:37.041Z,5.32
2022-10-05T03:18:03.951Z,5.32
2022-10-05T03:20:33.567Z,5.19
2022-10-05T03:23:02.162Z,5.21
2022-10-05T03:25:38.851Z,5.19
2022-10-05T03:28:27.245Z,5.15
2022-10-05T03:31:06.588Z,5.07
2022-10-05T03:33:47.274Z,5.11
2022-10-05T03:36:32.887Z,5.11
2022-10-05T03:39:19.219Z,4.98
2022-10-05T03:42:15.502Z,4.91
2022-10-05T03:44:53.458Z,4.84
2022-10-05T03:47:26.104Z,4.98
2022-10-05T03:50:13.257Z,4.95
2022-10-05T03:52:45.744Z,4.91
2022-10-05T03:55:30.842Z,4.89
2022-10-05T03:58:00.269Z,4.99
2022-10-05T04:00:30.109Z,5.01
2022-10-05T04:03:16.986Z,4.96
2022-10-05T04:05:48.915Z,4.96
2022-10-05T04:08:48.373Z,4.93
2022-10-05T04:11:29.756Z,4.95
2022-10-05T04:14:01.201Z,4.97
2022-10-05T04:16:39.817Z,4.95
2022-10-05T04:19:32.124Z,4.95
2022-10-05T04:22:07.038Z,4.85
2022-10-05T04:24:40.897Z,4.87
2022-10-05T04:27:09.468Z,4.89
2022-10-05T04:30:05.205Z,4.88
2022-10-05T04:32:42.723Z,4.85
2022-10-05T04:35:31.213Z,4.84
2022-10-05T04:48:10.566Z,5.61
2022-10-05T04:50:53.279Z,5.61
2022-10-05T04:53:40.336Z,4.88
2022-10-05T04:56:10.856Z,4.91
2022-10-05T04:58:44.390Z,4.83
2022-10-05T05:01:32.412Z,4.90
2022-10-05T05:04:20.853Z,4.96
2022-10-05T05:07:11.846Z,5.03
2022-10-05T05:10:12.710Z,5.11
2022-10-05T05:13:04.690Z,5.23
2022-10-05T05:16:39.258Z,5.10
2022-10-05T05:19:30.736Z,5.33
2022-10-05T05:22:04.034Z,5.44
2022-10-05T05:24:52.981Z,5.39
2022-10-05T05:27:42.513Z,5.43
2022-10-05T05:30:34.863Z,5.57
2022-10-05T05:33:19.556Z,5.60
2022-10-05T05:35:52.434Z,5.67
2022-10-05T05:38:33.833Z,5.79
2022-10-05T05:41:03.403Z,5.69
2022-10-05T05:43:43.853Z,5.83
2022-10-05T05:46:17.591Z,5.62
2022-10-05T05:48:46.747Z,5.82
2022-10-05T05:51:23.338Z,5.90
2022-10-05T05:53:57.261Z,5.88
2022-10-05T05:56:37.782Z,5.93
2022-10-05T05:59:15.745Z,5.60
2022-10-05T06:01:48.989Z,5.68
2022-10-05T06:04:31.535Z,5.51
2022-10-05T06:07:01.436Z,5.67
2022-10-05T06:09:50.504Z,5.79
2022-10-05T06:12:34.800Z,6.11
2022-10-05T06:15:23.718Z,6.28
2022-10-05T06:17:54.679Z,6.26
2022-10-05T06:20:40.787Z,6.53
2022-10-05T06:23:18.427Z,6.66
2022-10-05T06:26:18.404Z,6.74
2022-10-05T06:29:17.880Z,6.65
2022-10-05T06:32:09.910Z,6.79
2022-10-05T06:35:07.850Z,6.65
2022-10-05T06:38:00.548Z,6.95
2022-10-05T06:40:29.286Z,7.15
2022-10-05T06:43:03.216Z,7.11
2022-10-05T06:45:53.095Z,7.32
2022-10-05T06:48:44.400Z,7.62
2022-10-05T06:51:23.383Z,7.86
2022-10-05T06:54:15.193Z,7.91
2022-10-05T06:56:55.824Z,8.24
2022-10-05T06:59:53.146Z,8.34
2022-10-05T07:02:36.711Z,8.04
2022-10-05T07:05:28.251Z,8.01
2022-10-05T07:08:06.904Z,8.13
2022-10-05T07:10:42.667Z,8.37
2022-10-05T07:13:37.555Z,8.63
2022-10-05T07:16:13.048Z,8.78
2022-10-05T07:19:01.372Z,9.09
2022-10-05T07:22:00.433Z,9.25
2022-10-05T07:24:36.763Z,9.64
2022-10-05T07:27:15.745Z,9.93
2022-10-05T07:29:48.337Z,10.08
2022-10-05T07:32:39.536Z,10.28
2022-10-05T07:35:06.306Z,10.59
2022-10-05T07:37:57.952Z,10.67
2022-10-05T07:40:36.693Z,10.81
2022-10-05T07:43:21.853Z,11.11
2022-10-05T07:45:59.835Z,11.40
2022-10-05T07:48:46.177Z,11.58
2022-10-05T07:51:54.633Z,11.57
2022-10-05T07:54:30.272Z,11.97
2022-10-05T07:57:10.067Z,12.24
2022-10-05T07:59:54.787Z,12.59
2022-10-05T08:02:34.650Z,12.87
2022-10-05T08:05:19.023Z,13.19
2022-10-05T08:07:46.080Z,13.35
2022-10-05T08:10:22.038Z,13.57
2022-10-05T08:13:18.499Z,13.82
2022-10-05T08:15:48.514Z,14.09
2022-10-05T08:18:38.088Z,14.44
2022-10-05T08:21:11.771Z,14.30
2022-10-05T08:23:51.748Z,14.49
2022-10-05T08:26:18.526Z,14.62
2022-10-05T08:29:20.929Z,13.85
2022-10-05T08:31:50.829Z,14.12
2022-10-05T08:34:23.870Z,13.50
2022-10-05T08:36:56.132Z,13.23
2022-10-05T08:39:26.645Z,13.22
2022-10-05T08:42:41.992Z,13.56
2022-10-05T08:45:42.442Z,14.06
2022-10-05T08:48:18.679Z,14.20
2022-10-05T08:51:20.003Z,14.41
2022-10-05T08:54:17.525Z,14.79
2022-10-05T08:57:22.080Z,14.13
2022-10-05T09:00:04.226Z,14.81
2022-10-05T09:02:47.122Z,15.08
2022-10-05T09:05:50.621Z,15.20
2022-10-05T09:08:53.795Z,15.41
2022-10-05T09:11:36.620Z,15.61
2022-10-05T09:14:31.466Z,15.82
2022-10-05T09:17:07.041Z,15.60
2022-10-05T09:19:44.492Z,16.11
2022-10-05T09:22:30.418Z,16.11
2022-10-05T09:24:59.372Z,16.60
2022-10-05T09:27:38.007Z,16.75
2022-10-05T09:30:21.953Z,17.13
2022-10-05T09:33:10.452Z,17.04
2022-10-05T09:36:15.594Z,16.89
2022-10-05T09:38:54.368Z,16.96
2022-10-05T09:41:50.324Z,16.49
2022-10-05T09:44:29.389Z,16.35
2022-10-05T09:47:30.506Z,16.90
2022-10-05T09:50:19.563Z,17.03
2022-10-05T09:53:05.090Z,17.39
2022-10-05T09:56:00.318Z,17.56
2022-10-05T09:59:21.002Z,17.81
2022-10-05T10:02:17.016Z,18.12
2022-10-05T10:04:52.491Z,18.47
2022-10-05T10:07:38.025Z,18.52
2022-10-05T10:10:49.076Z,18.79
2022-10-05T10:13:28.481Z,18.88
2022-10-05T10:16:37.750Z,18.83
2022-10-05T10:19:33.657Z,18.88
2022-10-05T10:22:15.239Z,18.84
2022-10-05T10:24:53.861Z,18.69
2022-10-05T10:27:42.772Z,18.97
2022-10-05T10:30:36.602Z,18.96
2022-10-05T10:33:22.209Z,19.11
2022-10-05T10:36:06.106Z,19.30
2022-10-05T10:38:47.480Z,19.15
2022-10-05T10:41:21.902Z,18.81
2022-10-05T10:44:04.190Z,18.80
2022-10-05T10:46:33.968Z,18.67
2022-10-05T10:49:42.746Z,18.56
2022-10-05T10:52:32.538Z,18.60
2022-10-05T10:55:05.265Z,18.81
2022-10-05T10:58:03.893Z,18.88
2022-10-05T11:01:00.601Z,18.92
2022-10-05T11:03:50.872Z,19.18
2022-10-05T11:06:37.433Z,19.16
2022-10-05T11:09:31.895Z,19.37
2022-10-05T11:12:22.015Z,19.38
2022-10-05T11:15:27.162Z,19.56
2022-10-05T11:18:01.743Z,19.67
2022-10-05T11:20:39.780Z,19.68
2022-10-05T11:23:37.963Z,19.81
2022-10-05T11:26:22.324Z,19.92
2022-10-05T11:28:57.899Z,19.90
2022-10-05T11:31:52.880Z,19.86
2022-10-05T11:34:25.784Z,19.90
2022-10-05T11:36:55.739Z,19.86
2022-10-05T11:39:38.132Z,19.89
2022-10-05T11:42:32.679Z,19.91
2022-10-05T11:45:14.386Z,20.10
2022-10-05T11:48:04.181Z,20.19
2022-10-05T11:50:43.411Z,20.25
2022-10-05T11:53:24.305Z,19.95
2022-10-05T11:56:16.714Z,19.83
2022-10-05T11:59:00.214Z,19.74
2022-10-05T12:01:27.178Z,19.90
2022-10-05T12:03:58.277Z,19.82
2022-10-05T12:06:34.157Z,19.85
2022-10-05T12:09:32.036Z,19.69
2022-10-05T12:12:18.245Z,19.77
2022-10-05T12:15:14.310Z,19.65
2022-10-05T12:17:51.176Z,19.70
2022-10-05T12:20:27.864Z,19.57
2022-10-05T12:23:25.683Z,19.41
2022-10-05T12:26:05.503Z,19.50
2022-10-05T12:28:40.279Z,19.23
2022-10-05T12:31:29.661Z,19.45
2022-10-05T12:34:03.188Z,19.45
2022-10-05T12:37:04.476Z,19.36
2022-10-05T12:39:53.419Z,19.15
2022-10-05T12:42:32.136Z,19.13
2022-10-05T12:45:04.949Z,19.14
2022-10-05T12:47:44.844Z,19.08
2022-10-05T12:50:36.847Z,18.97
2022-10-05T12:53:28.851Z,18.81
2022-10-05T12:56:11.936Z,18.92
2022-10-05T12:58:53.827Z,19.10
2022-10-05T13:01:23.345Z,19.09
2022-10-05T13:04:06.342Z,19.06
2022-10-05T13:06:51.156Z,18.97
2022-10-05T13:09:48.568Z,18.98
2022-10-05T13:12:23.153Z,19.12
2022-10-05T13:15:03.323Z,19.06
2022-10-05T13:17:41.256Z,18.94
2022-10-05T13:20:21.533Z,18.85
2022-10-05T13:22:54.732Z,18.64
2022-10-05T13:26:01.159Z,18.70
2022-10-05T13:28:40.612Z,18.50
2022-10-05T13:31:13.621Z,18.66
2022-10-05T13:33:54.687Z,18.62
2022-10-05T13:36:54.509Z,18.66
2022-10-05T13:39:46.974Z,18.64
2022-10-05T13:42:31.478Z,18.57
2022-10-05T13:45:04.544Z,18.51
2022-10-05T13:47:52.826Z,18.59
2022-10-05T13:50:29.722Z,18.57
2022-10-05T13:53:28.920Z,18.56
2022-10-05T13:56:01.074Z,18.54
2022-10-05T13:58:36.132Z,18.49
2022-10-05T14:01:08.726Z,18.46
2022-10-05T14:03:37.380Z,18.49
2022-10-05T14:06:30.177Z,18.42
2022-10-05T14:09:00.099Z,18.39
2022-10-05T14:11:31.342Z,18.32
2022-10-05T14:14:10.308Z,18.32
2022-10-05T14:16:54.649Z,18.10
2022-10-05T14:19:26.856Z,18.18
2022-10-05T14:22:02.210Z,18.14
2022-10-05T14:24:43.716Z,18.12
2022-10-05T14:27:28.473Z,17.99
2022-10-05T14:30:10.339Z,18.09
2022-10-05T14:33:05.747Z,18.06
2022-10-05T14:35:50.543Z,18.00
2022-10-05T14:38:46.860Z,17.97
2022-10-05T14:41:21.395Z,17.84
2022-10-05T14:44:02.241Z,17.81
2022-10-05T14:46:32.684Z,17.78
2022-10-05T14:49:20.464Z,17.67
2022-10-05T14:51:47.968Z,17.71
2022-10-05T14:54:44.314Z,17.69
2022-10-05T14:57:25.276Z,17.61
2022-10-05T15:00:02.317Z,17.46
2022-10-05T15:02:38.607Z,17.53
2022-10-05T15:05:05.457Z,17.48
2022-10-05T15:07:40.508Z,17.35
2022-10-05T15:10:35.818Z,17.30
2022-10-05T15:13:13.525Z,17.25
2022-10-05T15:16:03.435Z,17.22
2022-10-05T15:18:41.970Z,17.12
2022-10-05T15:21:30.678Z,17.10
2022-10-05T15:24:01.084Z,17.04
2022-10-05T15:26:50.917Z,16.98
2022-10-05T15:29:27.218Z,16.90
2022-10-05T15:32:23.113Z,16.88
2022-10-05T15:35:28.076Z,16.79
2022-10-05T15:38:17.797Z,16.71
2022-10-05T15:40:50.550Z,16.62
2022-10-05T15:43:22.123Z,16.48
2022-10-05T15:46:04.467Z,16.43
2022-10-05T15:48:41.140Z,16.37
2022-10-05T15:51:36.445Z,16.33
2022-10-05T15:54:51.190Z,16.22
2022-10-05T15:57:55.619Z,16.23
2022-10-05T16:00:25.860Z,16.13
2022-10-05T16:03:15.435Z,16.04
2022-10-05T16:06:18.492Z,15.94
2022-10-05T16:09:28.503Z,15.83
2022-10-05T16:12:06.757Z,15.70
2022-10-05T16:14:42.453Z,15.62
2022-10-05T16:17:24.192Z,15.56
2022-10-05T16:20:20.680Z,15.47
2022-10-05T16:23:12.706Z,15.46
2022-10-05T16:25:58.773Z,15.36
2022-10-05T16:28:42.587Z,15.30
2022-10-05T16:31:19.009Z,15.27
2022-10-05T16:34:06.673Z,15.16
2022-10-05T16:36:36.453Z,15.10
2022-10-05T16:39:36.275Z,15.03
2022-10-05T16:42:11.884Z,14.93
2022-10-05T16:45:07.907Z,14.86
2022-10-05T16:47:55.340Z,14.74
2022-10-05T16:50:59.655Z,14.66
2022-10-05T16:53:35.638Z,14.59
2022-10-05T16:56:06.432Z,14.50
2022-10-05T16:58:51.914Z,14.37
2022-10-05T17:01:18.679Z,14.29
2022-10-05T17:03:57.493Z,14.25
2022-10-05T17:06:42.677Z,14.19
2022-10-05T17:09:15.322Z,14.12
2022-10-05T17:12:01.377Z,14.02
2022-10-05T17:14:52.819Z,13.96
2022-10-05T17:17:35.533Z,13.89
2022-10-05T17:20:12.052Z,13.81
2022-10-05T17:22:52.287Z,13.73
2022-10-05T17:25:28.702Z,13.65
2022-10-05T17:28:22.498Z,13.55
2022-10-05T17:30:58.625Z,13.48
2022-10-05T17:33:30.648Z,13.39
2022-10-05T17:36:04.799Z,13.35
2022-10-05T17:38:33.292Z,13.28
2022-10-05T17:41:00.236Z,13.19
2022-10-05T17:43:28.551Z,13.12
2022-10-05T17:46:00.781Z,13.06
2022-10-05T17:48:40.778Z,13.00
2022-10-05T17:51:48.701Z,12.94
2022-10-05T17:55:05.322Z,12.92
2022-10-05T17:57:33.993Z,12.84
2022-10-05T18:00:02.561Z,12.81
2022-10-05T18:02:38.478Z,12.77
2022-10-05T18:05:16.117Z,12.67
2022-10-05T18:07:48.232Z,12.59
2022-10-05T18:10:29.045Z,12.59
2022-10-05T18:12:59.100Z,12.53
2022-10-05T18:15:25.918Z,12.47
2022-10-05T18:17:57.161Z,12.31
2022-10-05T18:20:24.007Z,12.36
2022-10-05T18:22:52.925Z,12.22
2022-10-05T18:25:29.471Z,12.23
2022-10-05T18:28:33.844Z,12.20
2022-10-05T18:31:04.320Z,12.20
2022-10-05T18:33:34.092Z,12.10
2022-10-05T18:36:09.840Z,12.05
2022-10-05T18:38:55.211Z,12.02
2022-10-05T18:41:31.910Z,11.95
2022-10-05T18:44:42.611Z,11.94
2022-10-05T18:47:18.414Z,11.92
2022-10-05T18:50:29.063Z,11.90
2022-10-05T18:53:16.963Z,11.81
2022-10-05T18:56:02.877Z,11.77
2022-10-05T18:58:59.383Z,11.73
2022-10-05T19:01:41.246Z,11.68
2022-10-05T19:04:23.799Z,11.59
2022-10-05T19:07:04.899Z,11.61
2022-10-05T19:09:41.053Z,11.60
2022-10-05T19:12:23.934Z,11.54
2022-10-05T19:15:09.540Z,11.57
2022-10-05T19:17:58.652Z,11.53
2022-10-05T19:20:37.257Z,11.46
2022-10-05T19:23:09.317Z,11.46
2022-10-05T19:25:51.117Z,11.48
2022-10-05T19:28:28.693Z,11.44
2022-10-05T19:31:04.816Z,11.39
2022-10-05T19:34:22.172Z,11.42
2022-10-05T19:36:51.665Z,11.36
2022-10-05T19:39:31.326Z,11.37
2022-10-05T19:42:27.328Z,11.28
2022-10-05T19:44:57.080Z,11.24
2022-10-05T19:47:28.279Z,11.22
2022-10-05T19:49:57.660Z,11.27
2022-10-05T19:52:31.028Z,11.28
2022-10-05T19:55:04.683Z,11.29
2022-10-05T19:57:31.855Z,11.29
2022-10-05T19:59:59.764Z,11.27
2022-10-05T20:02:27.943Z,11.27
2022-10-05T20:05:06.445Z,11.24
2022-10-05T20:07:34.368Z,11.16
2022-10-05T20:10:29.191Z,11.19
2022-10-05T20:13:01.061Z,11.18
2022-10-05T20:15:53.882Z,11.17
2022-10-05T20:19:01.391Z,11.13
2022-10-05T20:21:40.358Z,11.16
2022-10-05T20:24:15.922Z,11.18
2022-10-05T20:27:05.483Z,11.20
2022-10-05T20:29:40.544Z,11.19
2022-10-05T20:32:16.007Z,11.18
2022-10-05T20:34:46.816Z,11.17
2022-10-05T20:37:15.919Z,11.11
2022-10-05T20:39:43.613Z,11.08
2022-10-05T20:42:11.088Z,11.05
2022-10-05T20:44:38.328Z,11.02
2022-10-05T20:47:08.757Z,11.02
2022-10-05T20:49:37.091Z,11.03
2022-10-05T20:52:04.647Z,11.04
2022-10-05T20:54:31.998Z,11.03
2022-10-05T20:56:58.858Z,11.03
2022-10-05T20:59:26.274Z,11.00
2022-10-05T21:01:53.043Z,10.97
2022-10-05T21:04:22.241Z,10.98
2022-10-05T21:06:49.300Z,10.99
2022-10-05T21:09:19.528Z,10.99
2022-10-05T21:11:47.853Z,10.98
2022-10-05T21:14:14.917Z,10.96
2022-10-05T21:16:42.942Z,10.95
2022-10-05T21:19:12.332Z,10.96
2022-10-05T21:21:40.285Z,10.93
2022-10-05T21:24:08.507Z,10.93
2022-10-05T21:26:37.247Z,10.90
2022-10-05T21:29:08.935Z,10.88
2022-10-05T21:31:39.231Z,10.80
2022-10-05T21:34:06.556Z,10.67
2022-10-05T21:36:34.143Z,10.68
2022-10-05T21:39:01.729Z,10.71
2022-10-05T21:41:29.068Z,10.66
2022-10-05T21:43:56.308Z,10.62
2022-10-05T21:46:26.744Z,10.58
2022-10-05T21:48:54.909Z,10.58
2022-10-05T21:51:24.773Z,10.59
2022-10-05T21:54:03.796Z,10.53
2022-10-05T21:56:35.055Z,10.54
2022-10-05T21:59:05.098Z,10.44
2022-10-05T22:01:32.448Z,10.34
2022-10-05T22:03:59.343Z,10.32
2022-10-05T22:06:26.470Z,10.39
2022-10-05T22:08:53.623Z,10.40
2022-10-05T22:11:20.784Z,10.37
2022-10-05T22:13:52.726Z,10.40
2022-10-05T22:16:22.032Z,10.20
2022-10-05T22:18:49.634Z,10.24
2022-10-05T22:21:16.838Z,10.24
2022-10-05T22:23:45.918Z,10.26
2022-10-05T22:26:15.973Z,10.24
2022-10-05T22:28:43.683Z,10.22
2022-10-05T22:31:12.511Z,10.24
2022-10-05T22:33:39.550Z,10.23
2022-10-05T22:36:07.646Z,10.18
2022-10-05T22:38:34.817Z,10.22
2022-10-05T22:41:01.712Z,10.20
2022-10-05T22:43:28.981Z,10.15
2022-10-05T22:45:56.261Z,10.16
2022-10-05T22:48:23.284Z,10.10
2022-10-05T22:50:50.266Z,10.06
2022-10-05T22:53:17.379Z,9.93
2022-10-05T22:59:25.921Z,9.75
2022-10-05T23:01:52.889Z,9.70
2022-10-05T23:04:19.826Z,9.77
2022-10-05T23:06:46.706Z,9.86
2022-10-05T23:09:13.942Z,9.88
2022-10-05T23:11:41.554Z,9.83
2022-10-05T23:14:08.433Z,9.69
2022-10-05T23:16:35.324Z,9.76
2022-10-05T23:19:03.079Z,9.71
2022-10-05T23:21:30.632Z,9.77
2022-10-05T23:23:57.430Z,9.74
2022-10-05T23:26:25.122Z,9.73
2022-10-05T23:28:52.684Z,9.65
2022-10-05T23:31:22.314Z,9.74
2022-10-05T23:33:49.342Z,9.78
2022-10-05T23:36:19.457Z,9.77
2022-10-05T23:38:46.669Z,9.70
2022-10-05T23:41:13.980Z,9.80
2022-10-05T23:43:40.804Z,9.82
2022-10-05T23:46:07.970Z,9.82
2022-10-05T23:48:37.965Z,9.81
2022-10-05T23:51:06.700Z,9.78
2022-10-05T23:53:33.675Z,9.73
2022-10-05T23:56:00.559Z,9.73
2022-10-05T23:58:27.764Z,9.74
